Time;durP1;ratioP1;P1;durP2;ratioP2;P2;SDS_P1;SDS_P2;PMS_P1;PMS_P2;Temp;Humidity;BMP_temperature;BMP_pressure;BME280_temperature;BME280_humidity;BME280_pressure;Samples;Min_cycle;Max_cycle;Signal;HPM_P1;HPM_P2
2022/12/14 00:00:44;;;;;;;0.00;0.00;;;;;;;;;;5052256;28;20060;-67
2022/12/14 00:03:11;;;;;;;0.00;0.00;;;;;;;;;;5036769;28;20064;-67
2022/12/14 00:05:37;;;;;;;0.03;0.03;;;;;;;;;;5036975;28;20079;-67
2022/12/14 00:08:04;;;;;;;0.10;0.10;;;;;;;;;;5036397;28;20060;-67
2022/12/14 00:10:31;;;;;;;0.10;0.10;;;;;;;;;;5048931;28;20117;-67
2022/12/14 00:12:58;;;;;;;0.10;0.10;;;;;;;;;;5038342;28;20029;-67
2022/12/14 00:15:24;;;;;;;0.10;0.10;;;;;;;;;;5054872;28;20029;-67
2022/12/14 00:17:51;;;;;;;0.00;0.00;;;;;;;;;;5036791;28;20431;-67
2022/12/14 00:20:17;;;;;;;0.07;0.07;;;;;;;;;;5054770;28;20502;-67
2022/12/14 00:22:43;;;;;;;0.00;0.00;;;;;;;;;;5054077;28;20386;-67
2022/12/14 00:25:10;;;;;;;0.00;0.00;;;;;;;;;;5036212;28;20544;-67
2022/12/14 00:27:36;;;;;;;0.10;0.10;;;;;;;;;;5054655;28;20360;-67
2022/12/14 00:30:02;;;;;;;0.10;0.10;;;;;;;;;;5036501;28;20021;-67
2022/12/14 00:32:29;;;;;;;0.00;0.00;;;;;;;;;;5022822;28;20036;-67
2022/12/14 00:34:55;;;;;;;0.07;0.07;;;;;;;;;;5036635;28;20029;-67
2022/12/14 00:37:21;;;;;;;0.00;0.00;;;;;;;;;;5054435;28;20591;-68
2022/12/14 00:39:47;;;;;;;0.10;0.10;;;;;;;;;;5036449;28;20040;-67
2022/12/14 00:42:14;;;;;;;0.10;0.10;;;;;;;;;;5036375;28;20372;-67
2022/12/14 00:44:40;;;;;;;0.00;0.00;;;;;;;;;;5034480;28;20062;-67
2022/12/14 00:47:06;;;;;;;0.10;0.10;;;;;;;;;;5041641;28;20021;-67
2022/12/14 00:49:33;;;;;;;0.00;0.00;;;;;;;;;;5050221;28;20111;-67
2022/12/14 00:51:59;;;;;;;0.00;0.00;;;;;;;;;;5035741;28;20025;-67
2022/12/14 00:54:25;;;;;;;0.00;0.00;;;;;;;;;;5016385;28;20036;-68
2022/12/14 00:56:51;;;;;;;0.10;0.10;;;;;;;;;;5034039;28;20040;-67
2022/12/14 00:59:18;;;;;;;0.00;0.00;;;;;;;;;;5017627;28;20112;-68
2022/12/14 01:01:45;;;;;;;0.00;0.00;;;;;;;;;;5031282;28;20024;-68
2022/12/14 01:04:18;;;;;;;0.00;0.00;;;;;;;;;;5018195;28;20111;-67
2022/12/14 01:06:49;;;;;;;0.10;0.10;;;;;;;;;;5016189;28;20029;-68
2022/12/14 01:09:16;;;;;;;0.00;0.00;;;;;;;;;;5036166;28;20021;-68
2022/12/14 01:11:42;;;;;;;0.07;0.07;;;;;;;;;;5053788;28;20036;-68
2022/12/14 01:14:09;;;;;;;0.07;0.07;;;;;;;;;;5035625;28;20119;-68
2022/12/14 01:16:36;;;;;;;0.10;0.10;;;;;;;;;;5053240;28;20036;-68
2022/12/14 01:19:03;;;;;;;0.00;0.00;;;;;;;;;;5048584;28;20033;-68
2022/12/14 01:21:29;;;;;;;0.10;0.10;;;;;;;;;;5009914;28;20412;-68
2022/12/14 01:23:56;;;;;;;0.10;0.10;;;;;;;;;;5024419;28;20029;-68
2022/12/14 01:26:23;;;;;;;0.10;0.10;;;;;;;;;;5033279;28;20032;-68
2022/12/14 01:28:56;;;;;;;0.10;0.10;;;;;;;;;;5015773;28;20030;-67
2022/12/14 01:31:23;;;;;;;0.00;0.00;;;;;;;;;;5032203;28;20021;-68
2022/12/14 01:33:50;;;;;;;0.00;0.00;;;;;;;;;;5033284;28;20026;-68
2022/12/14 01:36:18;;;;;;;0.00;0.00;;;;;;;;;;5033184;28;20369;-67
2022/12/14 01:38:45;;;;;;;0.00;0.00;;;;;;;;;;5032846;28;20506;-67
2022/12/14 01:41:31;;;;;;;0.03;0.03;;;;;;;;;;5014323;28;20487;-67
2022/12/14 01:44:21;;;;;;;0.10;0.10;;;;;;;;;;4995517;28;20382;-67
2022/12/14 01:46:49;;;;;;;0.00;0.00;;;;;;;;;;5012886;28;20052;-67
2022/12/14 01:49:30;;;;;;;0.00;0.00;;;;;;;;;;4996959;28;20121;-67
2022/12/14 01:51:57;;;;;;;0.00;0.00;;;;;;;;;;5032008;28;20087;-67
2022/12/14 01:54:33;;;;;;;0.00;0.00;;;;;;;;;;5032802;28;20484;-68
2022/12/14 01:56:59;;;;;;;0.00;0.00;;;;;;;;;;5014300;28;20108;-68
2022/12/14 01:59:27;;;;;;;0.00;0.00;;;;;;;;;;5032570;28;20061;-67
2022/12/14 02:01:55;;;;;;;0.07;0.07;;;;;;;;;;5014160;28;20026;-66
2022/12/14 02:04:21;;;;;;;0.00;0.00;;;;;;;;;;5014187;28;20393;-67
2022/12/14 02:06:49;;;;;;;0.00;0.00;;;;;;;;;;5014932;28;20452;-68
2022/12/14 02:09:20;;;;;;;0.00;0.00;;;;;;;;;;5032841;28;20021;-67
2022/12/14 02:11:52;;;;;;;0.00;0.00;;;;;;;;;;5032472;28;20018;-67
2022/12/14 02:14:18;;;;;;;0.00;0.00;;;;;;;;;;5018869;28;20468;-67
2022/12/14 02:16:44;;;;;;;0.00;0.00;;;;;;;;;;5013934;28;20025;-68
2022/12/14 02:19:11;;;;;;;0.00;0.00;;;;;;;;;;5032005;28;20025;-67
2022/12/14 02:21:55;;;;;;;0.00;0.00;;;;;;;;;;5011166;28;20058;-68
2022/12/14 02:24:34;;;;;;;0.00;0.00;;;;;;;;;;5008751;28;20091;-68
2022/12/14 02:27:13;;;;;;;0.00;0.00;;;;;;;;;;5028665;28;20017;-68
2022/12/14 02:29:39;;;;;;;0.00;0.00;;;;;;;;;;5004502;28;20075;-68
2022/12/14 02:32:21;;;;;;;0.10;0.10;;;;;;;;;;5012097;28;20044;-69
2022/12/14 02:34:57;;;;;;;0.00;0.00;;;;;;;;;;5031363;28;20433;-68
2022/12/14 02:37:41;;;;;;;0.10;0.10;;;;;;;;;;5031278;28;20025;-66
2022/12/14 02:40:14;;;;;;;0.00;0.00;;;;;;;;;;5031421;28;20136;-68
2022/12/14 02:42:43;;;;;;;0.00;0.00;;;;;;;;;;5000356;28;20488;-68
2022/12/14 02:45:21;;;;;;;0.10;0.10;;;;;;;;;;5031004;28;20383;-72
2022/12/14 02:47:53;;;;;;;0.00;0.00;;;;;;;;;;5030967;28;20513;-74
2022/12/14 02:50:31;;;;;;;0.00;0.00;;;;;;;;;;5016921;28;20021;-73
2022/12/14 02:53:07;;;;;;;0.00;0.00;;;;;;;;;;5013843;28;20029;-75
2022/12/14 02:55:46;;;;;;;0.00;0.00;;;;;;;;;;5024101;28;20029;-69
2022/12/14 02:58:15;;;;;;;0.00;0.00;;;;;;;;;;5008656;28;20029;-68
2022/12/14 03:00:42;;;;;;;0.07;0.07;;;;;;;;;;5016886;28;20030;-68
2022/12/14 03:03:09;;;;;;;0.00;0.00;;;;;;;;;;5001596;28;20037;-69
2022/12/14 03:05:35;;;;;;;0.00;0.00;;;;;;;;;;5029424;28;20029;-74
2022/12/14 03:08:08;;;;;;;0.07;0.07;;;;;;;;;;5006530;28;20080;-73
2022/12/14 03:10:47;;;;;;;0.00;0.00;;;;;;;;;;5023763;28;20024;-74
2022/12/14 03:13:18;;;;;;;0.10;0.10;;;;;;;;;;5004536;28;20108;-73
2022/12/14 03:15:46;;;;;;;0.00;0.00;;;;;;;;;;5023664;28;20104;-73
2022/12/14 03:18:16;;;;;;;0.10;0.10;;;;;;;;;;5026861;28;20104;-73
2022/12/14 03:20:44;;;;;;;0.07;0.07;;;;;;;;;;5008146;28;20554;-73
2022/12/14 03:23:18;;;;;;;0.00;0.00;;;;;;;;;;5011970;28;20442;-74
2022/12/14 03:25:47;;;;;;;0.07;0.07;;;;;;;;;;5028621;28;20092;-71
2022/12/14 03:28:16;;;;;;;0.00;0.00;;;;;;;;;;5011965;28;20480;-73
2022/12/14 03:30:44;;;;;;;0.00;0.00;;;;;;;;;;5026880;28;20030;-70
2022/12/14 03:33:16;;;;;;;0.00;0.00;;;;;;;;;;5028401;28;20144;-70
2022/12/14 03:35:48;;;;;;;0.10;0.10;;;;;;;;;;5008800;28;20040;-68
2022/12/14 03:38:26;;;;;;;0.07;0.07;;;;;;;;;;5025177;28;20037;-71
2022/12/14 03:40:57;;;;;;;0.00;0.00;;;;;;;;;;5009480;28;20033;-69
2022/12/14 03:43:44;;;;;;;0.10;0.10;;;;;;;;;;5027639;28;20034;-69
2022/12/14 03:46:15;;;;;;;0.00;0.00;;;;;;;;;;5010416;28;20064;-71
2022/12/14 03:48:41;;;;;;;0.07;0.07;;;;;;;;;;5006492;28;20080;-70
2022/12/14 03:51:43;;;;;;;0.00;0.00;;;;;;;;;;5011448;28;20099;-71
2022/12/14 03:54:21;;;;;;;0.10;0.10;;;;;;;;;;4930406;29;20042;-68
2022/12/14 03:56:57;;;;;;;0.10;0.10;;;;;;;;;;5018278;28;20076;-69
2022/12/14 03:59:30;;;;;;;0.00;0.00;;;;;;;;;;5030711;28;20031;-70
2022/12/14 04:01:56;;;;;;;0.00;0.00;;;;;;;;;;5014968;28;20387;-70
2022/12/14 04:04:34;;;;;;;0.00;0.00;;;;;;;;;;5026747;28;20033;-70
2022/12/14 04:07:07;;;;;;;0.10;0.10;;;;;;;;;;5011676;28;20022;-68
2022/12/14 04:09:38;;;;;;;0.00;0.00;;;;;;;;;;5014432;28;20369;-71
2022/12/14 04:20:40;;;;;;;0.10;0.10;;;;;;;;;;5031964;28;20060;-73
2022/12/14 04:23:11;;;;;;;0.00;0.00;;;;;;;;;;5049474;28;20052;-74
2022/12/14 04:31:15;;;;;;;0.00;0.00;;;;;;;;;;5048987;28;20108;-72
2022/12/14 04:33:46;;;;;;;0.00;0.00;;;;;;;;;;5044783;28;20459;-73
2022/12/14 04:36:20;;;;;;;0.00;0.00;;;;;;;;;;5034726;28;20120;-75
2022/12/14 04:38:48;;;;;;;0.00;0.00;;;;;;;;;;5029459;28;20629;-75
2022/12/14 04:41:17;;;;;;;0.00;0.00;;;;;;;;;;5051508;28;20063;-76
2022/12/14 04:43:45;;;;;;;0.07;0.07;;;;;;;;;;5052443;28;20113;-75
2022/12/14 04:46:12;;;;;;;0.03;0.03;;;;;;;;;;5035171;28;20036;-76
2022/12/14 04:48:42;;;;;;;0.10;0.10;;;;;;;;;;5038444;28;20033;-75
2022/12/14 04:51:09;;;;;;;0.00;0.00;;;;;;;;;;5053388;28;20094;-81
2022/12/14 04:53:36;;;;;;;0.00;0.00;;;;;;;;;;5052689;28;20055;-73
2022/12/14 04:56:09;;;;;;;0.00;0.00;;;;;;;;;;5053113;28;20056;-73
2022/12/14 04:58:36;;;;;;;0.00;0.00;;;;;;;;;;5052434;28;20037;-74
2022/12/14 05:01:21;;;;;;;0.00;0.00;;;;;;;;;;5036497;28;20047;-74
2022/12/14 05:03:53;;;;;;;0.00;0.00;;;;;;;;;;5038919;28;20061;-74
2022/12/14 05:06:39;;;;;;;0.00;0.00;;;;;;;;;;5029041;28;20344;-73
2022/12/14 05:09:23;;;;;;;0.00;0.00;;;;;;;;;;5048809;28;20025;-72
2022/12/14 05:11:53;;;;;;;0.00;0.00;;;;;;;;;;5047638;28;20095;-74
2022/12/14 05:14:28;;;;;;;0.00;0.00;;;;;;;;;;5033776;28;20033;-73
2022/12/14 05:16:55;;;;;;;0.00;0.00;;;;;;;;;;5048045;28;20104;-72
2022/12/14 05:19:25;;;;;;;0.00;0.00;;;;;;;;;;5046283;28;20082;-71
2022/12/14 05:21:52;;;;;;;0.00;0.00;;;;;;;;;;5042018;28;20047;-72
2022/12/14 05:24:18;;;;;;;0.00;0.00;;;;;;;;;;5030039;28;20025;-71
2022/12/14 05:26:44;;;;;;;0.00;0.00;;;;;;;;;;5047167;28;20495;-71
2022/12/14 05:29:11;;;;;;;0.00;0.00;;;;;;;;;;5035127;28;20025;-69
2022/12/14 05:31:38;;;;;;;0.00;0.00;;;;;;;;;;5042968;28;20033;-68
2022/12/14 05:34:04;;;;;;;0.00;0.00;;;;;;;;;;5047454;28;20028;-67
2022/12/14 05:36:31;;;;;;;0.00;0.00;;;;;;;;;;5029551;28;20652;-67
2022/12/14 05:38:57;;;;;;;0.00;0.00;;;;;;;;;;5027361;28;20024;-67
2022/12/14 05:41:23;;;;;;;0.00;0.00;;;;;;;;;;5028709;28;20025;-69
2022/12/14 05:43:50;;;;;;;0.00;0.00;;;;;;;;;;5029576;28;20032;-68
2022/12/14 05:46:17;;;;;;;0.00;0.00;;;;;;;;;;5032388;28;20025;-70
2022/12/14 05:48:43;;;;;;;0.00;0.00;;;;;;;;;;5023120;28;20034;-67
2022/12/14 05:51:11;;;;;;;0.00;0.00;;;;;;;;;;5031045;28;20048;-68
2022/12/14 05:53:39;;;;;;;0.00;0.00;;;;;;;;;;5046156;28;20471;-69
2022/12/14 05:56:06;;;;;;;0.00;0.00;;;;;;;;;;5047418;28;20029;-71
2022/12/14 05:58:33;;;;;;;0.00;0.00;;;;;;;;;;5048548;28;20379;-69
2022/12/14 06:01:01;;;;;;;0.00;0.00;;;;;;;;;;5044442;28;20036;-69
2022/12/14 06:03:28;;;;;;;0.00;0.00;;;;;;;;;;5027138;28;20040;-69
2022/12/14 06:05:54;;;;;;;0.00;0.00;;;;;;;;;;5026050;28;20028;-69
2022/12/14 06:08:20;;;;;;;0.00;0.00;;;;;;;;;;5027980;28;20032;-71
2022/12/14 06:10:47;;;;;;;0.00;0.00;;;;;;;;;;5040783;28;20121;-71
2022/12/14 06:13:13;;;;;;;0.00;0.00;;;;;;;;;;5028800;28;20048;-71
2022/12/14 06:15:39;;;;;;;0.00;0.00;;;;;;;;;;5045482;28;20044;-71
2022/12/14 06:18:06;;;;;;;0.00;0.00;;;;;;;;;;5047732;28;20055;-71
2022/12/14 06:20:32;;;;;;;0.00;0.00;;;;;;;;;;5028643;28;20136;-70
2022/12/14 06:22:58;;;;;;;0.00;0.00;;;;;;;;;;5044322;28;20150;-71
2022/12/14 06:25:25;;;;;;;0.00;0.00;;;;;;;;;;5045901;28;20049;-71
2022/12/14 06:27:54;;;;;;;0.00;0.00;;;;;;;;;;5049829;28;20032;-71
2022/12/14 06:30:20;;;;;;;0.00;0.00;;;;;;;;;;5048583;28;20604;-72
2022/12/14 06:32:47;;;;;;;0.00;0.00;;;;;;;;;;5051524;28;20021;-71
2022/12/14 06:35:13;;;;;;;0.00;0.00;;;;;;;;;;5047886;28;20029;-71
2022/12/14 06:37:39;;;;;;;0.00;0.00;;;;;;;;;;5047060;28;20140;-71
2022/12/14 06:40:06;;;;;;;0.00;0.00;;;;;;;;;;5048043;28;20032;-72
2022/12/14 06:42:32;;;;;;;0.00;0.00;;;;;;;;;;5056274;28;20041;-71
2022/12/14 06:44:59;;;;;;;0.00;0.00;;;;;;;;;;5044052;28;20476;-71
2022/12/14 06:47:26;;;;;;;0.00;0.00;;;;;;;;;;5048326;28;20508;-72
2022/12/14 06:49:52;;;;;;;0.00;0.00;;;;;;;;;;5047533;28;20641;-72
2022/12/14 06:52:18;;;;;;;0.00;0.00;;;;;;;;;;5047610;28;20053;-72
2022/12/14 06:54:46;;;;;;;0.00;0.00;;;;;;;;;;5045048;28;20115;-71
2022/12/14 06:57:12;;;;;;;0.00;0.00;;;;;;;;;;5043991;28;20037;-72
2022/12/14 06:59:39;;;;;;;0.00;0.00;;;;;;;;;;5042622;28;20091;-72
2022/12/14 07:02:05;;;;;;;0.00;0.00;;;;;;;;;;5044086;28;20040;-69
2022/12/14 07:04:31;;;;;;;0.00;0.00;;;;;;;;;;5041831;28;20041;-70
2022/12/14 07:06:58;;;;;;;0.00;0.00;;;;;;;;;;5045895;28;20482;-70
2022/12/14 07:09:25;;;;;;;0.00;0.00;;;;;;;;;;5041376;28;20098;-69
2022/12/14 07:11:52;;;;;;;0.00;0.00;;;;;;;;;;5045243;28;20040;-70
2022/12/14 07:14:18;;;;;;;0.00;0.00;;;;;;;;;;5040302;28;20057;-71
2022/12/14 07:16:46;;;;;;;0.00;0.00;;;;;;;;;;5038408;28;20029;-70
2022/12/14 07:19:12;;;;;;;0.00;0.00;;;;;;;;;;5047448;28;20067;-71
2022/12/14 07:21:38;;;;;;;0.00;0.00;;;;;;;;;;5047376;28;20151;-72
2022/12/14 07:24:06;;;;;;;0.00;0.00;;;;;;;;;;5045541;28;20033;-71
2022/12/14 07:26:32;;;;;;;0.00;0.00;;;;;;;;;;5044769;28;20087;-71
2022/12/14 07:29:01;;;;;;;0.00;0.00;;;;;;;;;;5039844;28;20033;-70
2022/12/14 07:31:28;;;;;;;0.00;0.00;;;;;;;;;;5043156;28;20029;-70
2022/12/14 07:33:55;;;;;;;0.00;0.00;;;;;;;;;;5042656;28;20438;-69
2022/12/14 07:36:22;;;;;;;0.00;0.00;;;;;;;;;;5041366;28;20419;-70
2022/12/14 07:38:50;;;;;;;0.00;0.00;;;;;;;;;;5050602;28;20088;-69
2022/12/14 07:41:20;;;;;;;0.00;0.00;;;;;;;;;;5045742;28;20025;-69
2022/12/14 07:43:47;;;;;;;0.00;0.00;;;;;;;;;;5047480;28;20494;-68
2022/12/14 07:46:15;;;;;;;0.00;0.00;;;;;;;;;;5049545;28;20029;-68
2022/12/14 07:48:46;;;;;;;0.00;0.00;;;;;;;;;;5042916;28;20053;-70
2022/12/14 07:51:14;;;;;;;0.00;0.00;;;;;;;;;;5043003;28;20565;-70
2022/12/14 07:53:41;;;;;;;0.00;0.00;;;;;;;;;;5051350;28;20043;-69
2022/12/14 07:56:08;;;;;;;0.00;0.00;;;;;;;;;;5047207;28;20025;-70
2022/12/14 07:58:36;;;;;;;0.00;0.00;;;;;;;;;;5040374;28;20075;-70
2022/12/14 08:01:12;;;;;;;0.00;0.00;;;;;;;;;;5041861;28;20120;-71
2022/12/14 08:03:43;;;;;;;0.00;0.00;;;;;;;;;;5047437;28;20079;-71
2022/12/14 08:06:10;;;;;;;0.00;0.00;;;;;;;;;;5048224;28;20053;-71
2022/12/14 08:08:37;;;;;;;0.00;0.00;;;;;;;;;;5040203;28;20116;-71
2022/12/14 08:11:04;;;;;;;0.00;0.00;;;;;;;;;;5045684;28;20025;-73
2022/12/14 08:13:31;;;;;;;0.00;0.00;;;;;;;;;;5039447;28;20124;-73
2022/12/14 08:16:01;;;;;;;0.00;0.00;;;;;;;;;;5035146;28;20052;-71
2022/12/14 08:18:29;;;;;;;0.00;0.00;;;;;;;;;;5038046;28;20057;-72
2022/12/14 08:20:55;;;;;;;0.00;0.00;;;;;;;;;;5040023;28;20539;-71
2022/12/14 08:23:22;;;;;;;0.00;0.00;;;;;;;;;;5043293;28;20036;-71
2022/12/14 08:25:53;;;;;;;0.00;0.00;;;;;;;;;;5043419;28;20024;-70
2022/12/14 08:28:19;;;;;;;0.00;0.00;;;;;;;;;;5046956;28;20025;-71
2022/12/14 08:30:46;;;;;;;0.00;0.00;;;;;;;;;;5052126;28;20099;-70
2022/12/14 08:33:12;;;;;;;0.00;0.00;;;;;;;;;;5032909;28;20047;-72
2022/12/14 08:35:38;;;;;;;0.00;0.00;;;;;;;;;;5046881;28;20047;-73
2022/12/14 08:38:04;;;;;;;0.00;0.00;;;;;;;;;;5025316;28;20106;-72
2022/12/14 08:40:34;;;;;;;0.00;0.00;;;;;;;;;;5047459;28;20033;-73
2022/12/14 08:43:00;;;;;;;0.00;0.00;;;;;;;;;;5032394;28;20029;-73
2022/12/14 08:45:26;;;;;;;0.00;0.00;;;;;;;;;;5031777;28;20029;-72
2022/12/14 08:47:53;;;;;;;0.00;0.00;;;;;;;;;;5030526;28;20036;-73
2022/12/14 08:50:19;;;;;;;0.00;0.00;;;;;;;;;;5049360;28;20099;-73
2022/12/14 08:52:48;;;;;;;0.00;0.00;;;;;;;;;;5030824;28;20032;-73
2022/12/14 08:55:15;;;;;;;0.00;0.00;;;;;;;;;;5029925;28;20028;-73
2022/12/14 08:57:41;;;;;;;0.00;0.00;;;;;;;;;;5047625;28;20090;-73
2022/12/14 09:00:08;;;;;;;0.00;0.00;;;;;;;;;;5044493;28;20120;-74
2022/12/14 09:02:35;;;;;;;0.00;0.00;;;;;;;;;;5047658;28;20340;-73
2022/12/14 09:05:01;;;;;;;0.00;0.00;;;;;;;;;;5047265;28;20025;-74
2022/12/14 09:07:28;;;;;;;0.00;0.00;;;;;;;;;;5030548;28;20076;-74
2022/12/14 09:09:55;;;;;;;0.00;0.00;;;;;;;;;;5051069;28;20061;-75
2022/12/14 09:12:22;;;;;;;0.00;0.00;;;;;;;;;;5051576;28;20527;-75
2022/12/14 09:14:48;;;;;;;0.00;0.00;;;;;;;;;;5043523;28;20356;-74
2022/12/14 09:17:15;;;;;;;0.00;0.00;;;;;;;;;;5026440;28;20064;-73
2022/12/14 09:19:41;;;;;;;0.00;0.00;;;;;;;;;;5021389;28;20120;-72
2022/12/14 09:22:08;;;;;;;0.00;0.00;;;;;;;;;;5037085;28;20168;-73
2022/12/14 09:24:34;;;;;;;0.00;0.00;;;;;;;;;;5045719;28;20723;-73
2022/12/14 09:27:01;;;;;;;0.00;0.00;;;;;;;;;;5041329;28;20025;-73
2022/12/14 09:29:28;;;;;;;0.00;0.00;;;;;;;;;;5048780;28;20421;-73
2022/12/14 09:31:55;;;;;;;0.00;0.00;;;;;;;;;;5047007;28;20108;-72
2022/12/14 09:34:22;;;;;;;0.00;0.00;;;;;;;;;;5047113;28;20069;-73
2022/12/14 09:36:48;;;;;;;0.00;0.00;;;;;;;;;;5049551;28;20084;-72
2022/12/14 09:39:15;;;;;;;0.00;0.00;;;;;;;;;;5047375;28;20033;-72
2022/12/14 09:41:44;;;;;;;0.00;0.00;;;;;;;;;;5045465;28;20119;-73
2022/12/14 09:44:10;;;;;;;0.00;0.00;;;;;;;;;;5047406;28;20037;-72
2022/12/14 09:46:46;;;;;;;0.65;0.00;;;;;;;;;;5045998;28;20025;-72
2022/12/14 09:49:25;;;;;;;0.00;0.00;;;;;;;;;;5044394;28;20083;-72
2022/12/14 09:51:52;;;;;;;0.00;0.00;;;;;;;;;;5050968;28;20083;-72
2022/12/14 09:54:20;;;;;;;0.00;0.00;;;;;;;;;;5042650;28;20068;-73
2022/12/14 09:56:47;;;;;;;0.00;0.00;;;;;;;;;;5045532;28;20108;-72
2022/12/14 09:59:16;;;;;;;0.75;0.00;;;;;;;;;;5042485;28;20056;-71
2022/12/14 10:02:21;;;;;;;0.00;0.00;;;;;;;;;;5044223;28;20051;-71
2022/12/14 10:04:52;;;;;;;2.40;0.03;;;;;;;;;;4985999;28;20101;-70
2022/12/14 10:07:22;;;;;;;0.00;0.00;;;;;;;;;;4967002;28;20618;-71
2022/12/14 10:09:59;;;;;;;0.00;0.00;;;;;;;;;;5020878;28;20041;-71
2022/12/14 10:12:32;;;;;;;0.00;0.00;;;;;;;;;;5038936;28;20041;-71
2022/12/14 10:15:04;;;;;;;0.00;0.00;;;;;;;;;;5040190;28;20029;-72
2022/12/14 10:17:58;;;;;;;0.00;0.00;;;;;;;;;;5035649;28;20053;-72
2022/12/14 10:20:36;;;;;;;0.00;0.00;;;;;;;;;;5045576;28;20360;-72
2022/12/14 10:23:03;;;;;;;0.00;0.00;;;;;;;;;;5011495;28;20132;-72
2022/12/14 10:25:33;;;;;;;0.00;0.00;;;;;;;;;;5003577;28;20054;-70
2022/12/14 10:28:28;;;;;;;0.00;0.00;;;;;;;;;;5023442;28;20029;-70
2022/12/14 10:30:57;;;;;;;0.00;0.00;;;;;;;;;;4989778;28;20058;-70
2022/12/14 10:33:31;;;;;;;0.00;0.00;;;;;;;;;;5026681;28;20033;-70
2022/12/14 10:36:00;;;;;;;0.00;0.00;;;;;;;;;;5008740;28;20037;-69
2022/12/14 10:38:29;;;;;;;0.00;0.00;;;;;;;;;;5008559;28;20530;-75
2022/12/14 10:41:19;;;;;;;0.00;0.00;;;;;;;;;;5005305;28;20426;-70
2022/12/14 10:43:50;;;;;;;0.00;0.00;;;;;;;;;;4953640;28;20504;-71
2022/12/14 10:46:45;;;;;;;0.00;0.00;;;;;;;;;;5004674;28;20061;-72
2022/12/14 10:49:18;;;;;;;0.00;0.00;;;;;;;;;;4938448;28;20376;-72
2022/12/14 10:51:45;;;;;;;0.00;0.00;;;;;;;;;;5008326;28;20029;-72
2022/12/14 10:54:20;;;;;;;0.00;0.00;;;;;;;;;;5025070;28;20598;-74
2022/12/14 10:56:47;;;;;;;0.00;0.00;;;;;;;;;;5027334;28;20430;-76
2022/12/14 10:59:20;;;;;;;0.00;0.00;;;;;;;;;;5022658;28;20075;-75
2022/12/14 11:01:49;;;;;;;0.00;0.00;;;;;;;;;;5013309;28;20890;-72
2022/12/14 11:04:18;;;;;;;0.00;0.00;;;;;;;;;;5024662;28;20053;-73
2022/12/14 11:06:44;;;;;;;0.00;0.00;;;;;;;;;;5028813;28;20037;-72
2022/12/14 11:09:21;;;;;;;0.00;0.00;;;;;;;;;;5031571;28;20410;-72
2022/12/14 11:11:47;;;;;;;0.00;0.00;;;;;;;;;;5015069;28;20022;-74
2022/12/14 11:14:17;;;;;;;0.00;0.00;;;;;;;;;;5030535;28;20060;-74
2022/12/14 11:16:43;;;;;;;0.00;0.00;;;;;;;;;;5011601;28;20037;-73
2022/12/14 11:19:17;;;;;;;0.00;0.00;;;;;;;;;;5006058;28;20025;-70
2022/12/14 11:21:44;;;;;;;0.00;0.00;;;;;;;;;;5010027;28;20089;-68
2022/12/14 11:24:21;;;;;;;0.00;0.00;;;;;;;;;;5005084;28;20087;-74
2022/12/14 11:26:48;;;;;;;0.00;0.00;;;;;;;;;;5009972;28;20076;-71
2022/12/14 11:29:20;;;;;;;0.00;0.00;;;;;;;;;;5011834;28;20112;-71
2022/12/14 11:31:47;;;;;;;1.80;0.00;;;;;;;;;;5027340;28;20495;-70
2022/12/14 11:34:23;;;;;;;0.00;0.00;;;;;;;;;;5008522;28;20030;-71
2022/12/14 11:36:49;;;;;;;0.00;0.00;;;;;;;;;;5014180;28;20121;-73
2022/12/14 11:39:19;;;;;;;0.00;0.00;;;;;;;;;;5014641;28;20037;-75
2022/12/14 11:42:11;;;;;;;0.00;0.00;;;;;;;;;;5027722;28;20034;-70
2022/12/14 11:44:37;;;;;;;0.00;0.00;;;;;;;;;;5009831;28;20037;-73
2022/12/14 11:49:18;;;;;;;0.00;0.00;;;;;;;;;;5100275;27;20799;-69
2022/12/14 11:51:54;;;;;;;0.00;0.00;;;;;;;;;;5062534;28;20107;-69
2022/12/14 11:54:21;;;;;;;0.00;0.00;;;;;;;;;;5087661;28;20089;-70
2022/12/14 11:56:49;;;;;;;0.00;0.00;;;;;;;;;;5084438;28;20031;-70
2022/12/14 11:59:16;;;;;;;0.00;0.00;;;;;;;;;;5084818;28;20056;-69
2022/12/14 12:01:43;;;;;;;0.00;0.00;;;;;;;;;;5085354;28;20055;-68
2022/12/14 12:04:12;;;;;;;0.00;0.00;;;;;;;;;;5083166;28;20067;-68
2022/12/14 12:06:40;;;;;;;0.00;0.00;;;;;;;;;;5065886;28;20498;-69
2022/12/14 12:09:27;;;;;;;0.00;0.00;;;;;;;;;;5067853;28;20028;-69
2022/12/14 12:11:53;;;;;;;0.00;0.00;;;;;;;;;;5064370;28;20115;-69
2022/12/14 12:14:29;;;;;;;0.00;0.00;;;;;;;;;;5084110;28;20727;-69
2022/12/14 12:16:56;;;;;;;0.00;0.00;;;;;;;;;;5082912;28;20110;-69
2022/12/14 12:19:32;;;;;;;0.00;0.00;;;;;;;;;;5066949;28;20470;-71
2022/12/14 12:22:00;;;;;;;0.00;0.00;;;;;;;;;;5083113;28;20037;-69
2022/12/14 12:24:38;;;;;;;0.00;0.00;;;;;;;;;;5062639;28;20064;-70
2022/12/14 12:27:12;;;;;;;0.00;0.00;;;;;;;;;;5060480;28;20039;-69
2022/12/14 12:29:44;;;;;;;0.00;0.00;;;;;;;;;;5078124;28;20025;-69
2022/12/14 12:32:13;;;;;;;0.00;0.00;;;;;;;;;;5082110;28;20028;-70
2022/12/14 12:34:39;;;;;;;0.00;0.00;;;;;;;;;;5063341;28;20059;-70
2022/12/14 12:38:51;;;;;;;0.00;0.00;;;;;;;;;;5108234;27;20370;-70
2022/12/14 12:41:27;;;;;;;0.00;0.00;;;;;;;;;;5097521;28;20118;-70
2022/12/14 12:43:53;;;;;;;0.00;0.00;;;;;;;;;;5092342;28;20032;-72
2022/12/14 12:46:24;;;;;;;0.00;0.00;;;;;;;;;;5102285;28;20020;-71
2022/12/14 12:48:53;;;;;;;0.00;0.00;;;;;;;;;;5102436;28;20663;-70
2022/12/14 12:51:22;;;;;;;0.00;0.00;;;;;;;;;;5092612;28;20028;-71
2022/12/14 12:53:52;;;;;;;0.00;0.00;;;;;;;;;;5097801;28;20486;-69
2022/12/14 12:56:20;;;;;;;0.00;0.00;;;;;;;;;;5097939;28;20024;-70
2022/12/14 12:58:48;;;;;;;0.00;0.00;;;;;;;;;;5102631;28;20023;-69
2022/12/14 13:01:21;;;;;;;0.00;0.00;;;;;;;;;;5098328;28;20038;-69
2022/12/14 13:03:50;;;;;;;0.00;0.00;;;;;;;;;;5099857;28;20051;-69
2022/12/14 13:06:25;;;;;;;0.00;0.00;;;;;;;;;;5089743;28;20027;-69
2022/12/14 13:09:18;;;;;;;0.00;0.00;;;;;;;;;;5095610;28;20028;-69
2022/12/14 13:11:45;;;;;;;0.00;0.00;;;;;;;;;;5092021;28;20043;-69
2022/12/14 13:14:14;;;;;;;0.00;0.00;;;;;;;;;;5094689;28;20397;-70
2022/12/14 13:16:41;;;;;;;0.00;0.00;;;;;;;;;;5097824;28;20039;-70
2022/12/14 13:19:21;;;;;;;0.00;0.00;;;;;;;;;;5095805;28;20103;-69
2022/12/14 13:21:50;;;;;;;0.00;0.00;;;;;;;;;;5095054;28;20049;-70
2022/12/14 13:24:18;;;;;;;0.00;0.00;;;;;;;;;;5095521;28;20034;-70
2022/12/14 13:26:56;;;;;;;0.00;0.00;;;;;;;;;;5104465;28;20050;-69
2022/12/14 13:29:33;;;;;;;0.00;0.00;;;;;;;;;;5096956;28;20113;-69
2022/12/14 13:32:19;;;;;;;0.00;0.00;;;;;;;;;;5092364;28;20073;-70
2022/12/14 13:35:01;;;;;;;0.00;0.00;;;;;;;;;;5078203;28;20151;-71
2022/12/14 13:37:45;;;;;;;0.00;0.00;;;;;;;;;;5097804;28;20044;-70
2022/12/14 13:40:28;;;;;;;0.00;0.00;;;;;;;;;;5091629;28;20024;-72
2022/12/14 13:43:11;;;;;;;0.00;0.00;;;;;;;;;;5094117;28;20038;-70
2022/12/14 13:45:39;;;;;;;0.00;0.00;;;;;;;;;;5099857;28;20025;-73
2022/12/14 13:48:08;;;;;;;0.00;0.00;;;;;;;;;;5096275;28;20544;-71
2022/12/14 13:50:39;;;;;;;0.00;0.00;;;;;;;;;;5077645;28;20055;-71
2022/12/14 13:53:11;;;;;;;0.00;0.00;;;;;;;;;;5082235;28;20071;-71
2022/12/14 13:55:45;;;;;;;0.00;0.00;;;;;;;;;;5081899;28;20931;-71
2022/12/14 13:58:17;;;;;;;0.00;0.00;;;;;;;;;;5083864;28;20032;-70
2022/12/14 14:00:44;;;;;;;0.00;0.00;;;;;;;;;;5082224;28;20032;-70
2022/12/14 14:03:29;;;;;;;0.00;0.00;;;;;;;;;;5079390;28;20049;-71
2022/12/14 14:05:56;;;;;;;0.00;0.00;;;;;;;;;;5078282;28;20390;-69
2022/12/14 14:08:33;;;;;;;0.00;0.00;;;;;;;;;;5081570;28;20025;-70
2022/12/14 14:11:22;;;;;;;0.00;0.00;;;;;;;;;;5084847;28;20024;-72
2022/12/14 14:13:49;;;;;;;0.00;0.00;;;;;;;;;;5077909;28;20040;-71
2022/12/14 14:16:24;;;;;;;0.00;0.00;;;;;;;;;;5079821;28;20466;-70
2022/12/14 14:19:11;;;;;;;0.00;0.00;;;;;;;;;;5082763;28;20414;-71
2022/12/14 14:21:42;;;;;;;0.00;0.00;;;;;;;;;;5081148;28;20035;-71
2022/12/14 14:24:15;;;;;;;0.00;0.00;;;;;;;;;;5082548;28;20054;-71
2022/12/14 14:26:42;;;;;;;0.00;0.00;;;;;;;;;;5083650;28;20032;-71
2022/12/14 14:29:12;;;;;;;0.00;0.00;;;;;;;;;;5084477;28;20123;-70
2022/12/14 14:31:46;;;;;;;0.00;0.00;;;;;;;;;;5083827;28;20059;-71
2022/12/14 14:34:36;;;;;;;0.00;0.00;;;;;;;;;;5079224;28;20434;-70
2022/12/14 14:37:23;;;;;;;0.00;0.00;;;;;;;;;;5075618;28;20043;-70
2022/12/14 14:40:12;;;;;;;0.00;0.00;;;;;;;;;;5075668;28;20043;-70
2022/12/14 14:42:41;;;;;;;0.00;0.00;;;;;;;;;;5083198;28;20450;-70
2022/12/14 14:45:08;;;;;;;0.00;0.00;;;;;;;;;;5086890;28;20020;-72
2022/12/14 14:47:36;;;;;;;0.00;0.00;;;;;;;;;;5087366;28;20087;-71
2022/12/14 14:50:05;;;;;;;0.00;0.00;;;;;;;;;;5075335;28;20550;-70
2022/12/14 14:52:43;;;;;;;0.00;0.00;;;;;;;;;;5088196;28;20063;-70
2022/12/14 14:55:31;;;;;;;0.00;0.00;;;;;;;;;;5081651;28;20040;-70
2022/12/14 14:58:04;;;;;;;0.00;0.00;;;;;;;;;;5074431;28;20068;-70
2022/12/14 15:00:32;;;;;;;0.00;0.00;;;;;;;;;;5075362;28;20033;-70
2022/12/14 15:02:59;;;;;;;0.00;0.00;;;;;;;;;;5073789;28;20199;-71
2022/12/14 15:05:27;;;;;;;0.00;0.00;;;;;;;;;;5083524;28;20039;-71
2022/12/14 15:07:54;;;;;;;0.00;0.00;;;;;;;;;;5081918;28;20029;-71
2022/12/14 15:10:24;;;;;;;0.00;0.00;;;;;;;;;;5083283;28;20033;-71
2022/12/14 15:13:13;;;;;;;0.00;0.00;;;;;;;;;;5086074;28;20033;-71
2022/12/14 15:15:44;;;;;;;0.00;0.00;;;;;;;;;;5082740;28;20028;-71
2022/12/14 15:18:16;;;;;;;0.00;0.00;;;;;;;;;;5082449;28;20474;-70
2022/12/14 15:20:49;;;;;;;0.00;0.00;;;;;;;;;;5078584;28;20475;-71